| time (UTC) | temp C | wind direction | speed KPH | gust KPH | rain 1hr cm | rain 24hr cm | rain mn cm | humidity % | barometer mb |
| 20260503174534 | 17 | 306 | 3.2 | 20.9 | 0.00 | 0.58 | 0.00 | 46 | 1017.7 |
| 20260503174034 | 17 | 227 | 6.4 | 20.9 | 0.00 | 0.58 | 0.00 | 46 | 1017.7 |
| 20260503173536 | 17 | 209 | 6.4 | 16.1 | 0.00 | 0.58 | 0.00 | 48 | 1017.7 |
| 20260503173035 | 17 | 257 | 6.4 | 17.7 | 0.00 | 0.58 | 0.00 | 44 | 1017.8 |
| 20260503172532 | 16 | 241 | 6.4 | 19.3 | 0.00 | 0.58 | 0.00 | 45 | 1017.7 |
| 20260503172035 | 17 | 192 | 3.2 | 19.3 | 0.00 | 0.58 | 0.00 | 50 | 1017.8 |
| 20260503171542 | 17 | 211 | 6.4 | 17.7 | 0.00 | 0.58 | 0.00 | 46 | 1017.7 |
| 20260503171031 | 17 | 127 | 3.2 | 16.1 | 0.00 | 0.58 | 0.00 | 47 | 1017.9 |
| 20260503170531 | 16 | 234 | 6.4 | 16.1 | 0.00 | 0.58 | 0.00 | 47 | 1017.9 |
| 20260503150512 | 15 | 360 | 3.2 | 19.3 | 0.00 | 0.71 | 0.00 | 64 | 1018.2 |
| 20260503150111 | 15 | 70 | 4.8 | 19.3 | 0.00 | 0.71 | 0.00 | 67 | 1018.2 |
| 20260503131041 | 10 | 360 | 8.0 | 20.9 | 0.00 | 0.71 | 0.00 | 79 | 1017.6 |
| 20260503130540 | 10 | 360 | 8.0 | 17.7 | 0.00 | 0.71 | 0.00 | 80 | 1017.5 |
| 20260503110520 | 8 | 360 | 0.0 | 8.0 | 0.00 | 0.79 | 0.00 | 84 | 1016.2 |
| 20260503090120 | 10 | 360 | 0.0 | 4.8 | 0.00 | 0.84 | 0.00 | 95 | 1014.3 |
| 20260503081600 | 10 | 360 | 0.0 | 8.0 | 0.00 | 0.86 | 0.00 | 95 | 1014.3 |
| 20260503081055 | 10 | 360 | 0.0 | 6.4 | 0.00 | 0.86 | 0.00 | 95 | 1014.3 |
| 20260503080555 | 9 | 360 | 1.6 | 6.4 | 0.00 | 0.86 | 0.00 | 94 | 1014.2 |
| 20260503080107 | 9 | 360 | 0.0 | 8.0 | 0.00 | 0.86 | 0.00 | 94 | 1014.2 |
| 20260503072553 | 9 | 360 | 0.0 | 8.0 | 0.00 | 0.86 | 0.00 | 94 | 1013.9 |
| 20260503072051 | 9 | 360 | 0.0 | 8.0 | 0.00 | 0.86 | 0.00 | 95 | 1013.9 |
| 20260503071607 | 9 | 360 | 0.0 | 4.8 | 0.00 | 0.86 | 0.00 | 94 | 1013.9 |
| 20260503071050 | 9 | 360 | 0.0 | 8.0 | 0.00 | 0.86 | 0.00 | 95 | 1013.8 |
| 20260503070550 | 9 | 360 | 0.0 | 8.0 | 0.00 | 0.86 | 0.00 | 95 | 1013.7 |
| 20260503055041 | 9 | 360 | 1.6 | 8.0 | 0.00 | 0.86 | 0.00 | 95 | 1012.9 |
| 20260503054555 | 10 | 360 | 0.0 | 6.4 | 0.00 | 0.86 | 0.00 | 95 | 1012.8 |
| 20260503054041 | 10 | 360 | 3.2 | 8.0 | 0.00 | 0.86 | 0.00 | 95 | 1012.9 |
| 20260503053540 | 10 | 360 | 0.0 | 8.0 | 0.00 | 0.86 | 0.00 | 94 | 1012.9 |
| 20260503053041 | 10 | 360 | 1.6 | 6.4 | 0.00 | 0.86 | 0.00 | 95 | 1012.9 |
| 20260503052540 | 10 | 360 | 1.6 | 6.4 | 0.00 | 0.86 | 0.00 | 95 | 1012.9 |
| 20260503052040 | 10 | 360 | 3.2 | 6.4 | 0.00 | 0.86 | 0.00 | 95 | 1012.9 |
| 20260503051539 | 10 | 360 | 1.6 | 4.8 | 0.00 | 0.86 | 0.00 | 95 | 1012.9 |
| 20260503051041 | 10 | 360 | 1.6 | 4.8 | 0.00 | 0.86 | 0.00 | 95 | 1013.0 |
| 20260503050538 | 10 | 360 | 1.6 | 9.7 | 0.00 | 0.86 | 0.00 | 95 | 1013.0 |
| 20260503050044 | 10 | 360 | 3.2 | 9.7 | 0.00 | 0.86 | 0.00 | 95 | 1012.8 |
| 20260503045538 | 10 | 360 | 3.2 | 9.7 | 0.00 | 0.86 | 0.00 | 95 | 1012.9 |
| 20260503045037 | 10 | 360 | 1.6 | 8.0 | 0.00 | 0.86 | 0.00 | 95 | 1012.9 |
| 20260503044548 | 10 | 360 | 1.6 | 6.4 | 0.00 | 0.86 | 0.00 | 95 | 1013.0 |
| 20260503044036 | 10 | 360 | 1.6 | 6.4 | 0.00 | 0.86 | 0.00 | 95 | 1012.9 |
| 20260503043538 | 10 | 360 | 0.0 | 6.4 | 0.00 | 0.86 | 0.00 | 95 | 1012.7 |
| 20260503043044 | 10 | 360 | 1.6 | 6.4 | 0.00 | 0.86 | 0.00 | 95 | 1012.6 |
| 20260503042532 | 10 | 360 | 1.6 | 6.4 | 0.00 | 0.86 | 0.00 | 95 | 1012.6 |
| 20260503042031 | 10 | 360 | 0.0 | 0.0 | 0.00 | 0.86 | 0.00 | 95 | 1012.7 |
| 20260503041530 | 10 | 360 | 0.0 | 0.0 | 0.00 | 0.86 | 0.00 | 95 | 1012.6 |
| 20260503041028 | 10 | 360 | 0.0 | 1.6 | 0.00 | 0.86 | 0.00 | 95 | 1012.5 |
| 20260503040527 | 10 | 360 | 0.0 | 6.4 | 0.00 | 0.86 | 0.00 | 95 | 1012.5 |
| 20260503040032 | 10 | 360 | 1.6 | 8.0 | 0.00 | 0.86 | 0.00 | 95 | 1012.4 |
| 20260503035525 | 10 | 360 | 1.6 | 8.0 | 0.00 | 0.86 | 0.86 | 95 | 1012.4 |
| 20260503035025 | 10 | 360 | 1.6 | 4.8 | 0.00 | 0.86 | 0.86 | 95 | 1012.4 |
| 20260503034525 | 10 | 360 | 0.0 | 4.8 | 0.03 | 0.86 | 0.86 | 95 | 1012.5 |
| 20260503034025 | 10 | 360 | 0.0 | 6.4 | 0.03 | 0.86 | 0.86 | 95 | 1012.5 |
| 20260503033527 | 10 | 360 | 0.0 | 6.4 | 0.03 | 0.86 | 0.86 | 95 | 1012.5 |
| 20260503033023 | 10 | 360 | 1.6 | 6.4 | 0.03 | 0.86 | 0.86 | 95 | 1012.5 |
| 20260503032523 | 10 | 360 | 0.0 | 6.4 | 0.03 | 0.86 | 0.86 | 95 | 1012.4 |
| 20260503032025 | 10 | 360 | 1.6 | 6.4 | 0.03 | 0.86 | 0.86 | 95 | 1012.5 |
| 20260503031527 | 10 | 360 | 0.0 | 3.2 | 0.03 | 0.86 | 0.86 | 95 | 1012.4 |
| 20260503031023 | 10 | 360 | 0.0 | 4.8 | 0.03 | 0.86 | 0.86 | 95 | 1012.4 |
| 20260503030522 | 10 | 360 | 0.0 | 9.7 | 0.03 | 0.86 | 0.86 | 95 | 1012.3 |
| 20260503030022 | 10 | 360 | 1.6 | 9.7 | 0.03 | 0.86 | 0.86 | 95 | 1012.1 |
| 20260503025521 | 10 | 360 | 0.0 | 6.4 | 0.03 | 0.86 | 0.86 | 95 | 1012.2 |
| 20260503025022 | 10 | 360 | 0.0 | 6.4 | 0.00 | 0.84 | 0.84 | 95 | 1012.3 |
| 20260503024521 | 10 | 360 | 0.0 | 8.0 | 0.00 | 0.84 | 0.84 | 95 | 1012.2 |
| 20260503024021 | 10 | 360 | 1.6 | 8.0 | 0.00 | 0.84 | 0.84 | 95 | 1012.2 |
| 20260503023522 | 10 | 360 | 1.6 | 8.0 | 0.00 | 0.84 | 0.84 | 95 | 1012.3 |
| 20260503023021 | 10 | 360 | 1.6 | 6.4 | 0.00 | 0.84 | 0.84 | 95 | 1012.4 |
| 20260503022519 | 10 | 360 | 0.0 | 6.4 | 0.00 | 0.84 | 0.84 | 95 | 1012.5 |
| 20260503022022 | 10 | 360 | 3.2 | 6.4 | 0.00 | 0.84 | 0.84 | 95 | 1012.4 |
| 20260503021518 | 10 | 360 | 0.0 | 6.4 | 0.00 | 0.84 | 0.84 | 95 | 1012.2 |
| 20260503021018 | 10 | 360 | 3.2 | 6.4 | 0.00 | 0.84 | 0.84 | 95 | 1012.1 |
| 20260503020516 | 10 | 360 | 1.6 | 6.4 | 0.00 | 0.84 | 0.84 | 95 | 1012.2 |
| 20260503020016 | 10 | 360 | 1.6 | 8.0 | 0.00 | 0.84 | 0.84 | 95 | 1012.2 |
| 20260503015515 | 10 | 360 | 1.6 | 12.9 | 0.00 | 0.84 | 0.84 | 95 | 1012.1 |
| 20260503015015 | 10 | 360 | 4.8 | 14.5 | 0.00 | 0.84 | 0.84 | 95 | 1012.0 |
| 20260503014514 | 10 | 360 | 1.6 | 14.5 | 0.00 | 0.84 | 0.84 | 95 | 1011.9 |
| 20260503014014 | 10 | 360 | 3.2 | 14.5 | 0.00 | 0.84 | 0.84 | 95 | 1011.9 |
| 20260503013514 | 10 | 360 | 3.2 | 14.5 | 0.00 | 0.84 | 0.84 | 95 | 1011.7 |
| 20260503013014 | 10 | 360 | 3.2 | 8.0 | 0.00 | 0.84 | 0.84 | 95 | 1011.8 |
| 20260503012514 | 10 | 360 | 1.6 | 9.7 | 0.00 | 0.84 | 0.84 | 95 | 1011.9 |
| 20260503012012 | 10 | 360 | 1.6 | 12.9 | 0.00 | 0.84 | 0.84 | 95 | 1011.8 |
| 20260503011513 | 10 | 360 | 3.2 | 12.9 | 0.00 | 0.84 | 0.84 | 95 | 1011.7 |
| 20260503011012 | 10 | 360 | 3.2 | 8.0 | 0.00 | 0.84 | 0.84 | 95 | 1011.7 |
| 20260503010513 | 10 | 360 | 3.2 | 8.0 | 0.00 | 0.84 | 0.84 | 95 | 1011.5 |
| 20260503010011 | 10 | 360 | 0.0 | 1.6 | 0.00 | 0.84 | 0.84 | 95 | 1011.6 |
| 20260503005511 | 10 | 360 | 0.0 | 9.7 | 0.00 | 0.84 | 0.84 | 95 | 1011.4 |
| 20260503005011 | 10 | 360 | 3.2 | 9.7 | 0.00 | 0.84 | 0.84 | 95 | 1011.5 |
| 20260503004513 | 10 | 360 | 3.2 | 14.5 | 0.00 | 0.84 | 0.84 | 95 | 1011.4 |
| 20260503004012 | 10 | 360 | 6.4 | 14.5 | 0.00 | 0.84 | 0.84 | 95 | 1011.6 |
| 20260503003509 | 10 | 360 | 0.0 | 12.9 | 0.00 | 0.84 | 0.84 | 95 | 1011.6 |
| 20260503003009 | 10 | 360 | 4.8 | 12.9 | 0.00 | 0.84 | 0.84 | 95 | 1011.4 |
| 20260503002509 | 10 | 360 | 4.8 | 17.7 | 0.00 | 0.84 | 0.84 | 95 | 1011.4 |
| 20260503002008 | 10 | 360 | 6.4 | 17.7 | 0.03 | 0.84 | 0.84 | 95 | 1011.3 |
| 20260503001508 | 11 | 360 | 3.2 | 14.5 | 0.03 | 0.84 | 0.84 | 95 | 1011.1 |
| 20260503001006 | 11 | 360 | 4.8 | 14.5 | 0.03 | 0.84 | 0.84 | 95 | 1011.1 |
| 20260503000510 | 11 | 360 | 6.4 | 17.7 | 0.05 | 0.84 | 0.84 | 95 | 1011.1 |
| 20260503000006 | 11 | 360 | 4.8 | 17.7 | 0.05 | 0.84 | 0.84 | 95 | 1011.0 |
| 20260502235505 | 11 | 360 | 4.8 | 14.5 | 0.05 | 0.84 | 0.84 | 95 | 1011.0 |
| 20260502235005 | 11 | 360 | 6.4 | 19.3 | 0.05 | 0.84 | 0.84 | 95 | 1011.0 |
| 20260502234504 | 11 | 360 | 9.7 | 19.3 | 0.05 | 0.84 | 0.84 | 95 | 1011.0 |
| 20260502234004 | 11 | 360 | 4.8 | 12.9 | 0.08 | 0.84 | 0.84 | 95 | 1010.9 |
| 20260502233503 | 11 | 360 | 1.6 | 12.9 | 0.08 | 0.84 | 0.84 | 95 | 1010.8 |
| 20260502233004 | 11 | 360 | 1.6 | 12.9 | 0.10 | 0.84 | 0.84 | 95 | 1010.7 |
| 20260502232503 | 11 | 360 | 1.6 | 12.9 | 0.13 | 0.84 | 0.84 | 95 | 1010.5 |
| 20260502232003 | 11 | 360 | 4.8 | 12.9 | 0.10 | 0.81 | 0.81 | 95 | 1010.3 |
| 20260502231503 | 11 | 360 | 1.6 | 9.7 | 0.10 | 0.81 | 0.81 | 95 | 1010.3 |
| 20260502231003 | 11 | 360 | 1.6 | 6.4 | 0.13 | 0.81 | 0.81 | 95 | 1010.4 |
| 20260502230503 | 11 | 360 | 0.0 | 8.0 | 0.10 | 0.79 | 0.79 | 95 | 1010.6 |
| 20260502230003 | 11 | 360 | 3.2 | 8.0 | 0.10 | 0.79 | 0.79 | 95 | 1010.5 |
| 20260502225502 | 11 | 360 | 1.6 | 14.5 | 0.10 | 0.79 | 0.79 | 95 | 1010.7 |
| 20260502225003 | 11 | 360 | 6.4 | 14.5 | 0.10 | 0.79 | 0.79 | 94 | 1010.6 |
| 20260502224501 | 11 | 360 | 4.8 | 19.3 | 0.10 | 0.79 | 0.79 | 95 | 1010.5 |
| 20260502224003 | 11 | 360 | 3.2 | 20.9 | 0.08 | 0.76 | 0.76 | 95 | 1010.4 |
| 20260502223600 | 11 | 360 | 9.7 | 20.9 | 0.10 | 0.76 | 0.76 | 94 | 1010.5 |
| 20260502223059 | 11 | 360 | 4.8 | 19.3 | 0.08 | 0.71 | 0.71 | 95 | 1010.6 |
| 20260502222558 | 11 | 360 | 8.0 | 19.3 | 0.08 | 0.71 | 0.71 | 95 | 1010.8 |
| 20260502222056 | 12 | 360 | 3.2 | 14.5 | 0.08 | 0.71 | 0.71 | 95 | 1010.5 |
| 20260502221612 | 12 | 360 | 3.2 | 14.5 | 0.08 | 0.71 | 0.71 | 95 | 1010.3 |
| 20260502221056 | 12 | 360 | 3.2 | 14.5 | 0.08 | 0.69 | 0.69 | 95 | 1010.0 |
| 20260502220555 | 12 | 360 | 4.8 | 17.7 | 0.08 | 0.69 | 0.69 | 95 | 1009.8 |
| 20260502215554 | 12 | 360 | 3.2 | 9.7 | 0.08 | 0.69 | 0.69 | 95 | 1009.6 |
| 20260502215055 | 12 | 360 | 3.2 | 14.5 | 0.10 | 0.69 | 0.69 | 95 | 1009.4 |
| 20260502214552 | 12 | 360 | 4.8 | 14.5 | 0.10 | 0.69 | 0.69 | 95 | 1009.3 |
| 20260502214051 | 12 | 43 | 4.8 | 14.5 | 0.13 | 0.69 | 0.69 | 95 | 1009.1 |
| 20260502213555 | 12 | 27 | 1.6 | 9.7 | 0.10 | 0.66 | 0.66 | 95 | 1009.1 |
| 20260502213050 | 13 | 345 | 1.6 | 8.0 | 0.10 | 0.66 | 0.66 | 95 | 1009.2 |
| 20260502212550 | 13 | 9 | 3.2 | 9.7 | 0.08 | 0.64 | 0.64 | 95 | 1009.3 |
| 20260502212050 | 13 | 11 | 1.6 | 9.7 | 0.10 | 0.64 | 0.64 | 95 | 1009.4 |
| 20260502211550 | 13 | 33 | 4.8 | 9.7 | 0.10 | 0.64 | 0.64 | 95 | 1009.3 |
| 20260502211049 | 13 | 9 | 0.0 | 4.8 | 0.08 | 0.61 | 0.61 | 95 | 1009.4 |
| 20260502210551 | 13 | 13 | 0.0 | 12.9 | 0.08 | 0.61 | 0.61 | 95 | 1009.3 |
| 20260502210104 | 13 | 30 | 1.6 | 12.9 | 0.08 | 0.61 | 0.61 | 95 | 1009.4 |
| 20260502205550 | 13 | 355 | 1.6 | 8.0 | 0.08 | 0.61 | 0.61 | 95 | 1009.4 |
| 20260502205049 | 13 | 21 | 0.0 | 9.7 | 0.08 | 0.58 | 0.58 | 95 | 1009.4 |
| 20260502204549 | 13 | 360 | 1.6 | 11.3 | 0.08 | 0.58 | 0.58 | 95 | 1009.5 |
| 20260502204046 | 13 | 360 | 0.0 | 8.0 | 0.05 | 0.56 | 0.56 | 95 | 1009.6 |
| 20260502203546 | 13 | 9 | 1.6 | 9.7 | 0.05 | 0.56 | 0.56 | 95 | 1009.6 |
| 20260502203047 | 13 | 21 | 1.6 | 12.9 | 0.05 | 0.56 | 0.56 | 95 | 1009.6 |
| 20260502202546 | 13 | 31 | 3.2 | 12.9 | 0.08 | 0.56 | 0.56 | 95 | 1009.6 |
| 20260502202046 | 13 | 30 | 3.2 | 19.3 | 0.05 | 0.53 | 0.53 | 95 | 1009.7 |
| 20260502201550 | 13 | 22 | 6.4 | 19.3 | 0.05 | 0.53 | 0.53 | 95 | 1009.7 |
| 20260502201046 | 13 | 13 | 4.8 | 12.9 | 0.05 | 0.53 | 0.53 | 95 | 1009.7 |
| 20260502200546 | 13 | 30 | 1.6 | 12.9 | 0.05 | 0.53 | 0.53 | 95 | 1009.5 |
| 20260502195546 | 13 | 22 | 4.8 | 11.3 | 0.08 | 0.53 | 0.53 | 95 | 1009.7 |
| 20260502195044 | 13 | 22 | 4.8 | 19.3 | 0.08 | 0.51 | 0.51 | 95 | 1009.7 |
| 20260502194543 | 13 | 9 | 6.4 | 19.3 | 0.08 | 0.51 | 0.51 | 94 | 1009.7 |
| 20260502194043 | 13 | 355 | 6.4 | 14.5 | 0.10 | 0.51 | 0.51 | 94 | 1009.9 |
| 20260502193543 | 13 | 10 | 3.2 | 14.5 | 0.10 | 0.51 | 0.51 | 95 | 1010.0 |
| 20260502193044 | 13 | 13 | 6.4 | 12.9 | 0.10 | 0.51 | 0.51 | 95 | 1010.1 |
| 20260502192542 | 13 | 251 | 4.8 | 17.7 | 0.08 | 0.48 | 0.48 | 95 | 1010.1 |
| 20260502192042 | 13 | 9 | 4.8 | 17.7 | 0.08 | 0.48 | 0.48 | 95 | 1010.0 |
| 20260502191549 | 13 | 32 | 9.7 | 17.7 | 0.10 | 0.48 | 0.48 | 95 | 1009.9 |
| 20260502191046 | 13 | 360 | 0.0 | 14.5 | 0.10 | 0.48 | 0.48 | 95 | 1010.0 |
| 20260502190541 | 13 | 9 | 3.2 | 14.5 | 0.10 | 0.48 | 0.48 | 95 | 1010.1 |
| 20260502190047 | 13 | 17 | 3.2 | 14.5 | 0.08 | 0.46 | 0.46 | 95 | 1010.3 |
| 20260502185540 | 13 | 13 | 1.6 | 14.5 | 0.08 | 0.46 | 0.46 | 95 | 1010.2 |
| 20260502185041 | 13 | 355 | 4.8 | 12.9 | 0.08 | 0.43 | 0.43 | 94 | 1010.3 |
| 20260502184541 | 13 | 9 | 3.2 | 9.7 | 0.08 | 0.43 | 0.43 | 95 | 1010.3 |
| 20260502184040 | 13 | 12 | 4.8 | 8.0 | 0.05 | 0.41 | 0.41 | 95 | 1010.2 |
| 20260502183540 | 13 | 39 | 0.0 | 8.0 | 0.05 | 0.41 | 0.41 | 95 | 1010.2 |
| 20260502183040 | 14 | 16 | 3.2 | 12.9 | 0.08 | 0.41 | 0.41 | 95 | 1010.3 |
| 20260502182539 | 13 | 26 | 3.2 | 12.9 | 0.08 | 0.41 | 0.41 | 95 | 1010.2 |
| 20260502182039 | 13 | 360 | 1.6 | 8.0 | 0.08 | 0.41 | 0.41 | 95 | 1010.2 |
| 20260502181540 | 13 | 360 | 3.2 | 8.0 | 0.05 | 0.38 | 0.38 | 95 | 1010.1 |
| 20260502181039 | 13 | 360 | 3.2 | 8.0 | 0.08 | 0.38 | 0.38 | 94 | 1010.1 |
| 20260502180539 | 13 | 360 | 0.0 | 9.7 | 0.08 | 0.38 | 0.38 | 95 | 1010.2 |